QFA280 YBBN-YSSY
Flight info
| Callsign | QFA280 |
|---|---|
| Flight time | N/A |
| Altitude | 40000 |
| Route | YBBN/19L 3146S15144E BORE4A/34L |
| Aircraft | B77W/H-SDE2E3GHIJ3J4J5LM1ORWXY/LB1D1 |
Departure
| Time | N/A |
|---|---|
| Airport | Brisbane International Airport (YBBN) |
Arrival
| Time | 2026-05-01 07:41 |
|---|---|
| Airport | Sydney Kingsford Smith International Airport (YSSY) |
| Time | Latitude | Longitude | Altitude | Speed | Heading |
|---|---|---|---|---|---|
| 2026-05-01 07:23 | -33.43187 | 151.08128 | 9023 ft | 338 kts | 169° |
| 2026-05-01 07:23 | -33.47492 | 151.08953 | 8626 ft | 295 kts | 169° |
| 2026-05-01 07:24 | -33.49478 | 151.09334 | 8349 ft | 284 kts | 169° |
| 2026-05-01 07:24 | -33.51406 | 151.09706 | 8039 ft | 279 kts | 169° |
| 2026-05-01 07:24 | -33.53325 | 151.10078 | 8020 ft | 279 kts | 169° |
| 2026-05-01 07:24 | -33.54642 | 151.10333 | 8026 ft | 285 kts | 169° |
| 2026-05-01 07:25 | -33.56576 | 151.10706 | 8022 ft | 283 kts | 169° |
| 2026-05-01 07:25 | -33.58506 | 151.11077 | 7996 ft | 279 kts | 169° |
| 2026-05-01 07:25 | -33.60410 | 151.11444 | 8000 ft | 276 kts | 169° |
| 2026-05-01 07:25 | -33.62312 | 151.11813 | 8011 ft | 277 kts | 169° |
| 2026-05-01 07:26 | -33.64218 | 151.12190 | 8001 ft | 278 kts | 169° |
| 2026-05-01 07:26 | -33.66128 | 151.12568 | 8004 ft | 279 kts | 169° |
| 2026-05-01 07:26 | -33.68042 | 151.12946 | 8017 ft | 279 kts | 169° |
| 2026-05-01 07:26 | -33.69964 | 151.13326 | 8016 ft | 280 kts | 169° |
| 2026-05-01 07:27 | -33.71890 | 151.13702 | 8004 ft | 280 kts | 168° |
| 2026-05-01 07:27 | -33.73818 | 151.14075 | 8016 ft | 280 kts | 168° |
| 2026-05-01 07:27 | -33.75746 | 151.14448 | 8007 ft | 280 kts | 169° |
| 2026-05-01 07:27 | -33.77657 | 151.14819 | 8005 ft | 280 kts | 169° |
| 2026-05-01 07:28 | -33.79582 | 151.15192 | 8007 ft | 279 kts | 169° |
| 2026-05-01 07:28 | -33.81493 | 151.15426 | 7913 ft | 275 kts | 182° |
| 2026-05-01 07:28 | -33.83343 | 151.14966 | 7674 ft | 275 kts | 194° |
| 2026-05-01 07:28 | -33.85173 | 151.14380 | 7315 ft | 267 kts | 193° |
| 2026-05-01 07:29 | -33.86974 | 151.13830 | 6553 ft | 273 kts | 192° |
| 2026-05-01 07:29 | -33.88812 | 151.13285 | 6266 ft | 273 kts | 193° |
| 2026-05-01 07:29 | -33.90646 | 151.12750 | 6076 ft | 274 kts | 192° |
| 2026-05-01 07:29 | -33.92519 | 151.12207 | 6002 ft | 271 kts | 192° |
| 2026-05-01 07:30 | -33.94336 | 151.11683 | 5993 ft | 269 kts | 192° |
| 2026-05-01 07:30 | -33.96156 | 151.11158 | 6003 ft | 271 kts | 192° |
| 2026-05-01 07:30 | -33.97995 | 151.10627 | 6009 ft | 273 kts | 192° |
| 2026-05-01 07:30 | -33.99842 | 151.10093 | 5957 ft | 274 kts | 192° |
| 2026-05-01 07:31 | -34.01720 | 151.09551 | 5568 ft | 281 kts | 192° |
| 2026-05-01 07:31 | -34.07240 | 151.07957 | 4976 ft | 263 kts | 191° |
| 2026-05-01 07:32 | -34.10757 | 151.08405 | 4564 ft | 258 kts | 165° |
| 2026-05-01 07:32 | -34.12509 | 151.08883 | 4299 ft | 259 kts | 165° |
| 2026-05-01 07:33 | -34.16046 | 151.09810 | 3714 ft | 261 kts | 166° |
| 2026-05-01 07:33 | -34.17822 | 151.10271 | 3432 ft | 260 kts | 165° |
| 2026-05-01 07:33 | -34.21238 | 151.11419 | 3025 ft | 245 kts | 143° |
| 2026-05-01 07:34 | -34.22335 | 151.12874 | 3013 ft | 229 kts | 111° |
| 2026-05-01 07:34 | -34.22493 | 151.16464 | 3015 ft | 215 kts | 79° |
| 2026-05-01 07:34 | -34.21916 | 151.18098 | 3014 ft | 214 kts | 47° |
| 2026-05-01 07:35 | -34.20698 | 151.19090 | 3012 ft | 209 kts | 24° |
| 2026-05-01 07:35 | -34.19361 | 151.19738 | 3003 ft | 206 kts | 23° |
| 2026-05-01 07:35 | -34.18049 | 151.20367 | 2988 ft | 200 kts | 23° |
| 2026-05-01 07:35 | -34.16762 | 151.20981 | 2999 ft | 197 kts | 22° |
| 2026-05-01 07:36 | -34.15501 | 151.21579 | 2993 ft | 193 kts | 23° |
| 2026-05-01 07:36 | -34.14268 | 151.22138 | 3010 ft | 186 kts | 16° |
| 2026-05-01 07:36 | -34.12978 | 151.22160 | 3023 ft | 189 kts | 356° |
| 2026-05-01 07:36 | -34.11676 | 151.21971 | 3010 ft | 189 kts | 355° |
| 2026-05-01 07:37 | -34.09044 | 151.21356 | 2516 ft | 191 kts | 351° |
| 2026-05-01 07:37 | -34.07769 | 151.21022 | 2264 ft | 183 kts | 351° |
| 2026-05-01 07:37 | -34.06550 | 151.20703 | 2028 ft | 183 kts | 351° |
| 2026-05-01 07:38 | -34.05313 | 151.20381 | 1777 ft | 179 kts | 351° |
| 2026-05-01 07:38 | -34.04122 | 151.20068 | 1547 ft | 170 kts | 352° |
| 2026-05-01 07:38 | -34.02032 | 151.19522 | 1123 ft | 137 kts | 352° |
| 2026-05-01 07:39 | -34.01136 | 151.19290 | 960 ft | 133 kts | 352° |
| 2026-05-01 07:39 | -34.00227 | 151.19053 | 786 ft | 134 kts | 350° |
| 2026-05-01 07:39 | -33.98394 | 151.18570 | 425 ft | 138 kts | 353° |
| 2026-05-01 07:40 | -33.97467 | 151.18338 | 246 ft | 135 kts | 351° |
| 2026-05-01 07:40 | -33.96552 | 151.18103 | 102 ft | 135 kts | 351° |
| 2026-05-01 07:40 | -33.95652 | 151.17878 | 27 ft | 123 kts | 348° |
| 2026-05-01 07:40 | -33.94964 | 151.17689 | 29 ft | 79 kts | 346° |
| 2026-05-01 07:41 | -33.94571 | 151.17583 | 30 ft | 57 kts | 348° |
| 2026-05-01 07:41 | -33.94201 | 151.17491 | 29 ft | 52 kts | 347° |
| 2026-05-01 07:41 | -33.93902 | 151.17529 | 27 ft | 0 kts | 74° |
| 2026-05-01 07:42 | -33.93902 | 151.17531 | 27 ft | 0 kts | 74° |
| 2026-05-01 07:42 | -33.93896 | 151.17557 | 28 ft | 0 kts | 74° |
| 2026-05-01 07:43 | -33.93895 | 151.17559 | 28 ft | 1 kts | 74° |